Time;durP1;ratioP1;P1;durP2;ratioP2;P2;SDS_P1;SDS_P2;PMS_P1;PMS_P2;Temp;Humidity;BMP_temperature;BMP_pressure;BME280_temperature;BME280_humidity;BME280_pressure;Samples;Min_cycle;Max_cycle;Signal;HPM_P1;HPM_P2
2021/07/19 00:00:43;;;;;;;3.97;1.00;;;;;;;23.13;52.22;101832.50;3746286;23;20081;-81
2021/07/19 00:21:42;;;;;;;2.55;0.70;;;;;;;22.98;52.45;101819.13;1210500;23;21923;-81
2021/07/19 00:33:27;;;;;;;1.00;0.60;;;;;;;22.93;54.28;101821.19;3679237;23;20046;-82
2021/07/19 00:36:19;;;;;;;2.15;0.93;;;;;;;22.92;52.97;101819.47;3729647;23;20423;-81
2021/07/19 00:44:52;;;;;;;2.75;0.80;;;;;;;22.64;55.10;101788.16;3692931;23;20030;-80
2021/07/19 00:47:46;;;;;;;1.30;0.73;;;;;;;22.79;53.40;101810.41;1206359;23;21112;-81
2021/07/19 01:02:50;;;;;;;1.45;0.65;;;;;;;22.61;53.66;101800.78;1211347;23;20194;-80
2021/07/19 01:08:23;;;;;;;1.08;0.70;;;;;;;22.37;56.33;101776.41;3746665;23;20046;-82
2021/07/19 01:10:53;;;;;;;4.65;1.13;;;;;;;22.46;56.57;101795.38;3671831;23;20038;-81
2021/07/19 01:19:54;;;;;;;1.70;0.88;;;;;;;22.38;54.28;101794.09;1202529;23;21480;-80
2021/07/19 01:22:58;;;;;;;2.17;0.80;;;;;;;22.36;54.72;101798.66;3744279;23;20802;-82
2021/07/19 01:28:41;;;;;;;1.30;0.65;;;;;;;22.30;54.55;101793.63;1208674;23;20266;-81
2021/07/19 01:43:53;;;;;;;1.45;0.70;;;;;;;22.14;54.57;101793.59;1209539;23;20215;-81
2021/07/19 01:52:56;;;;;;;2.10;0.80;;;;;;;22.05;54.64;101783.41;1210560;23;21477;-81
2021/07/19 01:58:50;;;;;;;1.63;0.90;;;;;;;21.98;54.99;101778.44;3683104;23;20042;-81
2021/07/19 02:01:21;;;;;;;2.65;0.68;;;;;;;21.93;58.21;101777.81;3726512;23;20034;-81
2021/07/19 02:04:14;;;;;;;2.13;0.80;;;;;;;21.93;55.50;101780.47;1207300;23;21553;-81
2021/07/19 02:15:23;;;;;;;1.98;0.70;;;;;;;21.76;57.72;101775.19;3714215;23;20066;-81
2021/07/19 02:18:19;;;;;;;2.22;0.70;;;;;;;21.75;55.80;101776.16;1204279;23;22117;-81
2021/07/19 02:27:14;;;;;;;2.33;0.73;;;;;;;21.67;55.06;101773.03;1207538;22;21437;-81
2021/07/19 02:50:50;;;;;;;1.15;0.50;;;;;;;21.55;56.72;101749.75;1206673;23;21461;-81
2021/07/19 02:56:44;;;;;;;2.83;1.00;;;;;;;21.54;56.55;101742.69;1211098;23;21357;-81
2021/07/19 02:59:37;;;;;;;2.20;0.70;;;;;;;21.52;56.75;101741.91;3675434;23;20805;-81
2021/07/19 03:11:29;;;;;;;1.38;0.55;;;;;;;21.41;56.89;101730.06;1207484;23;21495;-81
2021/07/19 03:20:11;;;;;;;3.25;1.00;;;;;;;21.32;56.89;101733.19;1201010;23;21910;-81
2021/07/19 03:25:50;;;;;;;1.83;0.70;;;;;;;21.27;56.85;101727.22;1206279;23;22112;-81
2021/07/19 03:28:43;;;;;;;1.45;0.68;;;;;;;21.23;57.10;101729.16;3713782;23;20040;-81
2021/07/19 03:31:17;;;;;;;2.70;0.88;;;;;;;21.20;58.91;101731.13;3724045;23;20856;31
2021/07/19 03:34:13;;;;;;;3.10;0.70;;;;;;;21.19;57.39;101729.41;1201451;23;21463;-81
2021/07/19 04:01:16;;;;;;;1.13;0.55;;;;;;;20.97;57.72;101711.88;1212110;22;21834;-81
2021/07/19 04:19:27;;;;;;;1.88;0.60;;;;;;;20.82;59.51;101710.00;3685384;22;20094;-81
2021/07/19 04:25:17;;;;;;;2.38;0.52;;;;;;;20.79;57.99;101710.16;1213924;22;21927;-81
2021/07/19 04:33:45;;;;;;;1.65;0.60;;;;;;;20.71;59.42;101696.38;1179161;23;20191;-81
2021/07/19 04:39:12;;;;;;;2.35;0.60;;;;;;;20.66;60.67;101701.91;1213325;22;20198;-81
2021/07/19 04:48:21;;;;;;;3.35;0.80;;;;;;;20.67;58.76;101705.44;1209989;23;21481;-81
2021/07/19 05:06:12;;;;;;;2.53;1.00;;;;;;;20.64;58.95;101701.16;3687757;23;20962;-81
2021/07/19 05:14:59;;;;;;;3.25;1.00;;;;;;;20.67;59.34;101703.63;1214939;22;21500;-81
2021/07/19 05:17:34;;;;;;;3.60;1.13;;;;;;;20.66;60.60;101698.41;1155414;22;20159;31
2021/07/19 05:38:32;;;;;;;1.70;0.82;;;;;;;20.73;59.67;101706.00;1211910;23;21480;-80
2021/07/19 05:59:55;;;;;;;3.00;1.00;;;;;;;20.88;60.65;101714.13;1212540;23;21450;-80
2021/07/19 06:05:59;;;;;;;4.70;1.13;;;;;;;21.03;60.53;101712.50;3818154;23;21128;-81
2021/07/19 06:11:51;;;;;;;2.25;0.82;;;;;;;21.18;60.27;101717.03;3796459;23;20053;-81
2021/07/19 06:23:30;;;;;;;2.08;0.80;;;;;;;21.17;62.44;101678.13;3825880;23;20041;-81
2021/07/19 06:29:23;;;;;;;1.92;1.00;;;;;;;21.50;60.43;101707.47;3724226;23;20033;-82
2021/07/19 06:34:52;;;;;;;3.72;1.10;;;;;;;21.57;62.00;101703.53;3798201;22;20068;-82
2021/07/19 06:37:44;;;;;;;5.30;0.90;;;;;;;21.64;60.40;101706.72;1289566;23;21408;-81
2021/07/19 06:43:19;;;;;;;4.85;1.30;;;;;;;21.71;62.34;101706.31;3755833;22;20042;-82
2021/07/19 06:45:49;;;;;;;2.78;0.90;;;;;;;21.62;62.39;101674.03;3757390;22;20064;-82
2021/07/19 06:48:24;;;;;;;6.32;1.00;;;;;;;21.82;61.94;101699.56;3759281;23;20046;-82
2021/07/19 06:57:28;;;;;;;2.13;0.93;;;;;;;22.00;60.72;101706.56;1355356;23;20246;-81
2021/07/19 07:00:23;;;;;;;2.63;1.10;;;;;;;22.06;60.32;101705.38;3742349;23;20320;-82
2021/07/19 07:02:50;;;;;;;2.50;0.95;;;;;;;21.93;63.06;101684.75;1285665;22;20174;-81
2021/07/19 07:05:17;;;;;;;2.78;1.20;;;;;;;22.11;62.71;101714.84;3719964;22;20138;-77
2021/07/19 07:08:13;;;;;;;4.75;0.98;;;;;;;22.21;61.24;101710.72;3669867;23;20058;-85
2021/07/19 07:29:47;;;;;;;3.45;1.00;;;;;;;22.81;58.77;101712.66;1211725;22;21445;-86
2021/07/19 07:48:05;;;;;;;1.88;1.00;;;;;;;23.12;58.09;101703.75;1211554;22;21477;-85
2021/07/19 08:25:07;;;;;;;3.85;1.20;;;;;;;24.12;56.47;101702.97;1211396;23;21400;-84
2021/07/19 08:34:04;;;;;;;2.28;1.05;;;;;;;24.29;56.20;101697.44;1253594;23;20238;-84
2021/07/19 09:12:31;;;;;;;3.00;1.23;;;;;;;24.83;54.85;101687.63;1213031;23;21423;-83
2021/07/19 09:27:20;;;;;;;2.17;0.80;;;;;;;25.20;54.24;101684.31;1205063;23;21597;-84
2021/07/19 09:53:50;;;;;;;2.70;1.15;;;;;;;28.45;49.89;101666.91;1211860;22;21433;-83
2021/07/19 09:59:57;;;;;;;2.67;1.40;;;;;;;29.28;47.98;101666.13;3688486;23;20540;-85
2021/07/19 10:20:10;;;;;;;3.92;1.60;;;;;;;31.81;42.19;101638.38;3531831;40;20049;-85
2021/07/19 10:22:38;;;;;;;4.00;1.77;;;;;;;32.17;40.95;101650.09;3492487;40;20683;-85
2021/07/19 10:25:06;;;;;;;3.75;1.40;;;;;;;32.52;40.25;101651.13;3505484;40;20041;-85
2021/07/19 10:27:36;;;;;;;3.65;1.40;;;;;;;32.92;39.87;101657.94;3500391;40;20055;-85
2021/07/19 10:30:07;;;;;;;2.85;1.20;;;;;;;33.22;39.70;101649.34;3483778;40;20430;-85
2021/07/19 10:32:36;;;;;;;7.05;1.65;;;;;;;33.60;38.61;101657.19;3496553;40;20114;-85
2021/07/19 10:35:09;;;;;;;5.80;1.85;;;;;;;33.97;38.74;101643.31;3485710;40;20084;-85
2021/07/19 10:38:12;;;;;;;4.85;1.75;;;;;;;34.42;39.36;101647.44;3478909;40;20068;-85
2021/07/19 10:40:43;;;;;;;2.78;1.17;;;;;;;34.68;37.83;101631.06;3475993;40;21053;-84
2021/07/19 10:43:13;;;;;;;4.22;1.77;;;;;;;34.93;35.58;101646.31;3504171;40;20063;-85
2021/07/19 10:45:43;;;;;;;5.00;1.48;;;;;;;35.24;35.45;101642.88;3511543;40;20083;-85
2021/07/19 10:48:22;;;;;;;6.50;2.03;;;;;;;35.66;36.25;101639.03;3509337;40;20985;-84
2021/07/19 10:50:54;;;;;;;5.20;1.50;;;;;;;35.90;35.26;101640.78;3508639;40;20051;-85
2021/07/19 10:53:22;;;;;;;3.17;1.60;;;;;;;36.04;33.15;101640.03;3523410;40;20179;-85
2021/07/19 10:56:07;;;;;;;2.90;1.35;;;;;;;36.52;35.68;101641.59;3532274;40;20097;-85
2021/07/19 10:58:46;;;;;;;6.10;1.77;;;;;;;36.69;34.75;101634.13;3530460;40;20559;-84
2021/07/19 11:01:24;;;;;;;4.43;1.80;;;;;;;36.94;34.12;101636.66;3534811;40;20474;-85
2021/07/19 11:03:53;;;;;;;4.80;1.85;;;;;;;36.88;31.87;101617.28;3539507;40;20069;-85
2021/07/19 11:06:36;;;;;;;5.53;1.98;;;;;;;37.38;33.44;101634.84;3550984;40;20120;-85
2021/07/19 11:09:11;;;;;;;3.03;1.42;;;;;;;37.62;32.40;101630.13;3526363;40;20070;-85
2021/07/19 11:11:40;;;;;;;3.63;1.80;;;;;;;37.76;31.19;101634.69;3520834;40;20088;-85
2021/07/19 11:14:19;;;;;;;4.15;1.50;;;;;;;37.99;30.73;101615.50;3553679;40;20052;-86
2021/07/19 11:16:49;;;;;;;2.40;1.30;;;;;;;38.39;31.00;101627.69;3537979;40;20057;-85
2021/07/19 11:19:29;;;;;;;3.80;1.40;;;;;;;38.90;31.08;101624.75;3541213;40;20412;-85
2021/07/19 11:22:23;;;;;;;3.90;1.58;;;;;;;39.31;31.08;101626.72;3555697;40;20327;-85
2021/07/19 11:25:08;;;;;;;4.50;1.63;;;;;;;39.66;30.68;101618.50;3564778;40;20059;-85
2021/07/19 11:27:41;;;;;;;4.78;1.60;;;;;;;39.94;29.39;101627.41;3555495;40;20050;-85
2021/07/19 11:30:22;;;;;;;3.97;1.67;;;;;;;40.25;29.30;101626.06;3540114;40;20135;-85
2021/07/19 11:32:50;;;;;;;4.07;1.70;;;;;;;40.34;28.12;101622.06;3561305;40;20080;-85
2021/07/19 11:35:21;;;;;;;2.05;1.35;;;;;;;40.67;27.03;101616.63;3557700;40;20567;-85
2021/07/19 11:37:59;;;;;;;3.80;1.70;;;;;;;40.94;27.18;101616.63;3562728;40;20073;-85
2021/07/19 11:40:30;;;;;;;5.88;1.60;;;;;;;41.21;26.91;101621.00;3537369;40;20135;-84
2021/07/19 11:43:22;;;;;;;4.88;1.63;;;;;;;41.45;27.86;101624.91;3560483;40;20083;-85
2021/07/19 11:45:57;;;;;;;4.18;1.48;;;;;;;41.58;27.12;101623.19;3564806;40;20076;-85
2021/07/19 11:48:28;;;;;;;3.88;2.00;;;;;;;41.68;26.42;101623.56;3553754;40;20050;-85
2021/07/19 11:51:01;;;;;;;4.57;1.80;;;;;;;41.84;26.28;101622.25;3562068;40;20065;-85
2021/07/19 11:53:32;;;;;;;5.07;1.80;;;;;;;42.02;25.75;101619.59;3549583;40;20086;-85
2021/07/19 11:56:04;;;;;;;3.75;1.77;;;;;;;42.28;25.65;101623.25;3566962;40;20062;-85
2021/07/19 11:58:31;;;;;;;4.75;1.90;;;;;;;42.30;24.90;101621.13;3547671;40;20497;-84
2021/07/19 12:01:02;;;;;;;4.57;1.90;;;;;;;42.54;24.49;101619.47;3563444;40;20540;-85
2021/07/19 12:03:30;;;;;;;3.30;1.42;;;;;;;42.56;24.53;101615.41;3548221;40;20082;-84
2021/07/19 12:05:57;;;;;;;5.07;2.00;;;;;;;42.69;23.76;101609.00;3563259;40;20050;-84
2021/07/19 12:08:33;;;;;;;3.35;1.60;;;;;;;42.93;24.38;101610.84;3558874;40;20064;-85
2021/07/19 12:11:07;;;;;;;2.85;1.45;;;;;;;42.93;23.78;101586.13;3565601;40;20045;-85
2021/07/19 12:13:41;;;;;;;2.45;1.25;;;;;;;43.18;24.56;101607.22;3539139;40;20438;-86
2021/07/19 12:16:13;;;;;;;3.97;1.77;;;;;;;43.32;23.93;101608.75;3552748;40;20820;-85
2021/07/19 12:18:43;;;;;;;4.38;1.30;;;;;;;43.39;23.06;101603.16;3535076;40;20344;-85
2021/07/19 12:21:23;;;;;;;4.53;1.60;;;;;;;43.69;23.65;101604.06;3549194;40;20128;-85
2021/07/19 12:23:53;;;;;;;4.50;2.00;;;;;;;43.70;22.39;101599.41;3545595;40;20069;-85
2021/07/19 12:26:36;;;;;;;2.80;1.55;;;;;;;43.97;24.01;101614.50;3550314;40;20072;-85
2021/07/19 12:29:17;;;;;;;3.13;1.70;;;;;;;44.09;23.70;101608.16;3557203;40;20045;-85
2021/07/19 12:31:52;;;;;;;3.17;1.50;;;;;;;44.13;22.60;101610.22;3560220;40;20577;-85
2021/07/19 12:34:35;;;;;;;3.08;1.63;;;;;;;44.25;23.34;101613.03;3559858;40;20069;-85
2021/07/19 12:37:13;;;;;;;3.10;1.70;;;;;;;44.26;23.18;101617.47;3556565;40;20050;-85
2021/07/19 12:39:57;;;;;;;5.00;2.20;;;;;;;44.35;23.89;101618.78;3555741;40;20081;-85
2021/07/19 12:42:28;;;;;;;6.32;2.08;;;;;;;44.29;22.43;101622.50;3555248;40;20064;-85
2021/07/19 12:44:57;;;;;;;5.10;1.70;;;;;;;44.16;21.79;101614.44;3559293;40;20055;-85
2021/07/19 12:47:27;;;;;;;3.67;1.58;;;;;;;44.15;22.20;101615.47;3552730;40;20425;-84
2021/07/19 12:50:02;;;;;;;4.47;1.90;;;;;;;44.20;22.42;101610.94;3558399;40;20057;-85
2021/07/19 12:52:34;;;;;;;4.22;1.73;;;;;;;44.17;21.98;101616.09;3365001;40;10000956;-85
2021/07/19 12:55:27;;;;;;;3.08;1.52;;;;;;;44.27;22.83;101610.88;2202936;40;10002339;-85
2021/07/19 12:57:59;;;;;;;3.13;1.45;;;;;;;44.23;22.25;101604.16;3558126;40;20062;-85
2021/07/19 13:00:30;;;;;;;3.22;1.52;;;;;;;44.22;21.54;101608.84;3558685;40;20053;-85
2021/07/19 13:03:14;;;;;;;3.13;1.75;;;;;;;44.22;21.01;101606.09;3549010;40;20070;-85
2021/07/19 13:05:52;;;;;;;3.22;1.88;;;;;;;44.25;22.31;101604.75;3549612;40;20109;-85
2021/07/19 13:08:29;;;;;;;4.55;1.95;;;;;;;44.17;21.75;101599.59;3557098;40;20668;-85
2021/07/19 13:11:11;;;;;;;4.72;2.00;;;;;;;44.14;22.27;101595.38;3552196;40;20323;-85
2021/07/19 13:13:41;;;;;;;4.22;2.33;;;;;;;44.07;21.14;101593.81;3542861;40;20058;-84
2021/07/19 13:16:09;;;;;;;3.92;2.55;;;;;;;44.07;21.26;101604.81;3565040;40;20077;-84
2021/07/19 13:18:36;;;;;;;4.70;2.42;;;;;;;44.11;21.31;101595.03;3559897;40;20065;-85
2021/07/19 13:21:09;;;;;;;5.13;3.03;;;;;;;44.27;21.54;101599.88;3539775;40;20073;-85
2021/07/19 13:23:40;;;;;;;5.97;2.60;;;;;;;44.34;21.60;101589.56;3541084;40;24588;-85
2021/07/19 13:26:15;;;;;;;7.63;3.58;;;;;;;44.44;21.24;101594.50;3532693;40;20056;-85
2021/07/19 13:28:43;;;;;;;4.10;2.40;;;;;;;44.43;20.22;101598.31;3535597;40;20059;-86
2021/07/19 13:31:11;;;;;;;4.95;2.70;;;;;;;44.51;20.82;101595.22;3540615;40;20113;-85
2021/07/19 13:33:44;;;;;;;4.93;2.83;;;;;;;44.66;20.97;101595.63;3561952;40;20493;-85
2021/07/19 13:36:11;;;;;;;5.53;3.00;;;;;;;44.69;20.39;101586.03;3529984;40;20300;-85
2021/07/19 13:38:43;;;;;;;6.88;2.80;;;;;;;44.87;21.14;101583.13;3554268;40;20784;-85
2021/07/19 13:41:16;;;;;;;4.38;2.40;;;;;;;45.07;21.20;101595.69;3544509;40;20052;-85
2021/07/19 13:43:48;;;;;;;4.45;2.55;;;;;;;44.99;21.62;101588.63;3541702;40;20087;-85
2021/07/19 13:46:17;;;;;;;5.13;2.80;;;;;;;44.91;20.51;101595.34;3535851;40;20046;-85
2021/07/19 13:48:44;;;;;;;4.57;2.53;;;;;;;44.79;20.11;101581.56;3554803;40;20054;-85
2021/07/19 13:51:11;;;;;;;8.27;2.70;;;;;;;44.96;20.18;101587.16;3548445;40;20057;-85
2021/07/19 13:53:39;;;;;;;4.57;2.90;;;;;;;45.09;20.52;101596.31;3539474;40;20064;-85
2021/07/19 13:56:09;;;;;;;5.97;3.08;;;;;;;45.23;20.82;101586.69;3550273;40;20126;-85
2021/07/19 13:58:42;;;;;;;5.97;2.85;;;;;;;45.32;20.88;101590.75;3556037;40;20088;-85
2021/07/19 14:01:10;;;;;;;5.85;3.08;;;;;;;45.32;20.62;101574.19;3562508;40;20065;-85
2021/07/19 14:03:40;;;;;;;6.40;3.35;;;;;;;45.59;19.92;101591.03;3548812;40;20058;-85
2021/07/19 14:06:11;;;;;;;6.00;3.40;;;;;;;45.79;20.69;101585.06;3554556;40;20054;-85
2021/07/19 14:08:43;;;;;;;4.78;2.72;;;;;;;45.86;20.73;101591.28;3537466;40;20463;-85
2021/07/19 14:11:18;;;;;;;5.78;2.88;;;;;;;45.82;20.33;101579.03;3551167;40;20054;-86
2021/07/19 14:13:46;;;;;;;6.97;2.60;;;;;;;45.82;19.68;101589.25;3535572;40;20058;-85
2021/07/19 14:16:13;;;;;;;5.28;2.55;;;;;;;45.82;19.68;101568.00;3562773;40;20065;-85
2021/07/19 14:18:40;;;;;;;5.22;2.40;;;;;;;45.82;19.74;101581.81;3562116;40;20082;-85
2021/07/19 14:21:10;;;;;;;5.40;2.45;;;;;;;45.73;19.82;101563.97;3569591;40;20512;-85
2021/07/19 14:23:37;;;;;;;5.45;2.72;;;;;;;45.55;19.52;101576.03;3560707;40;20060;-85
2021/07/19 14:26:08;;;;;;;4.45;2.60;;;;;;;45.48;20.49;101572.59;3559577;40;20057;-85
2021/07/19 14:28:37;;;;;;;4.40;1.95;;;;;;;45.39;20.68;101574.91;3541200;40;20647;-85
2021/07/19 14:31:05;;;;;;;6.45;2.95;;;;;;;45.29;20.05;101569.16;3557112;40;20096;-85
2021/07/19 14:33:58;;;;;;;4.85;2.33;;;;;;;45.35;21.45;101565.41;3561769;40;20430;-85
2021/07/19 14:36:25;;;;;;;3.38;1.50;;;;;;;45.12;21.29;101551.69;3554759;40;20059;-85
2021/07/19 14:39:05;;;;;;;3.22;1.90;;;;;;;45.20;20.26;101565.09;3525494;40;20095;-85
2021/07/19 14:41:34;;;;;;;5.28;2.22;;;;;;;45.25;20.08;101562.44;3567491;40;20055;-85
2021/07/19 14:44:02;;;;;;;3.17;1.90;;;;;;;45.10;20.46;101548.34;3562335;40;20057;-85
2021/07/19 14:46:28;;;;;;;2.78;1.67;;;;;;;44.94;20.24;101542.50;3560288;40;20348;-84
2021/07/19 14:48:56;;;;;;;2.20;1.35;;;;;;;45.14;21.12;101561.41;3535015;40;20053;-85
2021/07/19 14:51:24;;;;;;;4.30;2.00;;;;;;;45.15;20.46;101556.72;3552407;40;20058;-85
2021/07/19 14:53:52;;;;;;;3.47;1.30;;;;;;;45.15;21.09;101556.72;3561282;40;20768;-85
2021/07/19 14:56:26;;;;;;;3.03;1.60;;;;;;;45.24;21.45;101555.25;3562611;40;21008;-85
2021/07/19 14:58:57;;;;;;;2.83;1.70;;;;;;;45.27;21.14;101554.78;3544018;40;20045;-85
2021/07/19 15:01:24;;;;;;;3.05;1.70;;;;;;;45.21;20.30;101541.94;3559888;40;20050;-85
2021/07/19 15:03:51;;;;;;;3.50;1.40;;;;;;;45.24;20.18;101549.75;3544069;40;20073;-85
2021/07/19 15:06:21;;;;;;;4.13;1.30;;;;;;;45.18;20.80;101550.72;3552259;40;20066;-86
2021/07/19 15:08:48;;;;;;;3.33;1.35;;;;;;;44.92;20.77;101544.66;3559350;40;20057;-86
2021/07/19 15:11:42;;;;;;;2.15;1.45;;;;;;;45.02;21.76;101549.59;3549643;40;20099;-86
2021/07/19 15:14:13;;;;;;;2.65;1.50;;;;;;;44.91;21.20;101545.72;3547925;40;20079;-86
2021/07/19 15:16:41;;;;;;;2.25;1.50;;;;;;;44.92;20.83;101552.94;3559761;40;20073;-85
2021/07/19 15:19:08;;;;;;;3.45;1.27;;;;;;;44.94;20.84;101544.41;3551216;40;20056;-86
2021/07/19 15:21:35;;;;;;;2.83;1.27;;;;;;;45.04;20.62;101552.94;3553679;40;20139;-85
2021/07/19 15:24:04;;;;;;;4.10;1.30;;;;;;;45.14;20.81;101533.00;3538310;40;20062;-86
2021/07/19 15:26:37;;;;;;;2.67;1.15;;;;;;;45.20;20.71;101537.53;3545968;40;20070;-85
2021/07/19 15:29:03;;;;;;;2.33;1.40;;;;;;;45.13;20.04;101536.84;3537224;40;20085;-85
2021/07/19 15:31:37;;;;;;;8.13;1.50;;;;;;;45.23;20.58;101539.81;3538370;40;20069;-85
2021/07/19 15:34:05;;;;;;;3.38;1.35;;;;;;;45.19;20.16;101535.84;3527369;40;20090;-85
2021/07/19 15:36:33;;;;;;;3.05;1.20;;;;;;;45.25;20.07;101540.38;3558915;40;20104;-85
2021/07/19 15:39:00;;;;;;;5.57;1.10;;;;;;;45.26;20.41;101531.84;3551516;40;20090;-85
2021/07/19 15:41:27;;;;;;;2.38;1.10;;;;;;;45.33;20.27;101537.25;3560446;40;20060;-86
2021/07/19 15:43:57;;;;;;;3.75;1.27;;;;;;;45.47;19.76;101537.78;3539390;40;20082;-86
2021/07/19 15:46:34;;;;;;;3.15;1.10;;;;;;;45.58;20.12;101536.09;3531010;40;20082;-86
2021/07/19 15:49:02;;;;;;;4.13;1.25;;;;;;;45.54;19.62;101532.97;3535769;40;20061;-86
2021/07/19 15:51:29;;;;;;;1.90;1.27;;;;;;;45.40;19.98;101531.59;3556723;40;20061;-86
2021/07/19 15:53:56;;;;;;;2.22;1.20;;;;;;;45.16;20.10;101522.53;3553481;40;20061;-85
2021/07/19 15:56:26;;;;;;;2.42;1.30;;;;;;;44.98;20.70;101524.38;3544865;40;20053;-86
2021/07/19 15:58:54;;;;;;;1.55;1.10;;;;;;;44.77;20.29;101516.78;3540259;40;20081;-86
2021/07/19 16:01:47;;;;;;;5.13;1.10;;;;;;;44.82;21.28;101530.66;3517522;40;20069;-86
2021/07/19 16:04:16;;;;;;;2.58;1.27;;;;;;;44.64;20.46;101519.78;3537832;40;20501;-86
2021/07/19 16:06:46;;;;;;;2.70;1.33;;;;;;;44.59;20.79;101519.63;3554906;40;20065;-86
2021/07/19 16:09:14;;;;;;;2.72;1.48;;;;;;;44.45;20.85;101519.03;3534301;40;20057;-86
2021/07/19 16:11:41;;;;;;;4.03;1.30;;;;;;;44.40;20.34;101510.66;3546334;40;20054;-86
2021/07/19 16:14:13;;;;;;;3.67;1.42;;;;;;;44.28;20.69;101517.00;3551663;40;20064;-86
2021/07/19 16:16:42;;;;;;;2.75;1.30;;;;;;;44.19;21.56;101509.31;3550006;40;20065;-86
2021/07/19 16:19:11;;;;;;;2.78;1.00;;;;;;;44.16;20.97;101515.31;3518153;40;20484;-86
2021/07/19 16:21:43;;;;;;;3.10;1.40;;;;;;;44.19;21.18;101517.56;3526240;40;20468;-86
2021/07/19 16:24:12;;;;;;;1.92;1.00;;;;;;;44.05;20.95;101510.59;3548668;40;20550;-85
2021/07/19 16:26:40;;;;;;;1.23;1.05;;;;;;;43.94;21.13;101493.84;3525012;40;20553;-86
2021/07/19 16:29:07;;;;;;;3.38;1.50;;;;;;;44.11;20.71;101517.94;3535863;40;20054;-86
2021/07/19 16:31:35;;;;;;;1.80;1.20;;;;;;;43.95;21.31;101498.28;3538587;40;20186;-86
2021/07/19 16:34:30;;;;;;;2.33;1.23;;;;;;;44.06;21.64;101515.06;3538524;40;20078;-86
2021/07/19 16:37:05;;;;;;;3.55;1.70;;;;;;;43.78;21.50;101502.75;3521977;40;20054;-86
2021/07/19 16:39:33;;;;;;;3.45;1.40;;;;;;;43.65;21.24;101514.84;3525569;40;20561;-85
2021/07/19 16:42:01;;;;;;;2.88;1.27;;;;;;;43.48;21.24;101505.56;3547263;40;20050;-85
2021/07/19 16:44:55;;;;;;;2.15;1.20;;;;;;;43.44;22.08;101512.59;3565805;40;20064;-86
2021/07/19 16:47:22;;;;;;;1.83;1.23;;;;;;;43.17;21.41;101506.59;3552520;40;21047;-86
2021/07/19 16:49:50;;;;;;;2.83;1.33;;;;;;;42.99;21.03;101502.78;3559339;40;20058;-86
2021/07/19 16:52:17;;;;;;;2.10;1.25;;;;;;;42.71;22.02;101502.47;3537874;40;20069;-86
2021/07/19 16:54:45;;;;;;;1.48;1.27;;;;;;;42.47;21.70;101496.75;3502105;40;20058;-86
2021/07/19 16:57:14;;;;;;;4.25;1.27;;;;;;;42.36;21.74;101503.00;3527038;40;20613;-86
2021/07/19 16:59:41;;;;;;;3.63;1.60;;;;;;;42.22;22.08;101498.69;3516670;40;20082;-85
2021/07/19 17:02:08;;;;;;;2.60;1.50;;;;;;;42.18;22.49;101494.72;3537410;40;20046;-86
2021/07/19 17:04:37;;;;;;;2.88;1.60;;;;;;;42.24;21.94;101496.59;3499737;40;20053;-86
2021/07/19 17:07:04;;;;;;;3.22;1.60;;;;;;;42.25;21.74;101495.53;3542186;40;20082;-86
2021/07/19 17:09:34;;;;;;;2.58;1.35;;;;;;;42.19;22.24;101499.19;3518827;40;21204;-86
2021/07/19 17:12:06;;;;;;;2.20;1.40;;;;;;;42.08;22.30;101492.47;3511076;40;20059;-86
2021/07/19 17:14:36;;;;;;;5.88;1.48;;;;;;;41.90;22.06;101482.28;3546507;40;20061;-86
2021/07/19 17:17:04;;;;;;;2.50;1.65;;;;;;;41.86;22.48;101505.72;3527428;40;20086;-86
2021/07/19 17:19:30;;;;;;;1.95;1.30;;;;;;;41.73;21.78;101483.88;3552191;40;20411;-86
2021/07/19 17:21:57;;;;;;;2.90;1.40;;;;;;;41.71;22.37;101496.94;3530931;40;20046;-86
2021/07/19 17:24:50;;;;;;;3.92;1.70;;;;;;;41.72;22.48;101498.63;3502446;40;20656;-86
2021/07/19 17:27:16;;;;;;;2.85;1.50;;;;;;;41.47;22.28;101493.97;3540250;40;20509;-86
2021/07/19 17:29:43;;;;;;;2.80;1.40;;;;;;;41.31;22.13;101482.59;3541598;40;20042;-86
2021/07/19 17:32:16;;;;;;;1.90;1.38;;;;;;;41.21;22.71;101485.81;3547824;40;20049;-86
2021/07/19 17:34:44;;;;;;;1.98;1.20;;;;;;;40.91;22.99;101480.06;3546237;40;20092;-87
2021/07/19 17:37:10;;;;;;;3.90;1.27;;;;;;;40.69;23.47;101472.09;3529146;40;20110;-86
2021/07/19 17:39:40;;;;;;;4.07;2.10;;;;;;;40.66;23.76;101477.19;3520561;40;20081;-86
2021/07/19 17:42:07;;;;;;;3.65;1.35;;;;;;;40.50;23.33;101464.78;3538285;40;20075;-86
2021/07/19 17:44:36;;;;;;;5.82;1.25;;;;;;;40.43;24.02;101466.66;3546981;40;20031;-86
2021/07/19 17:47:07;;;;;;;3.15;1.20;;;;;;;40.28;24.11;101464.16;3525643;40;20040;-86
2021/07/19 17:49:38;;;;;;;3.00;1.30;;;;;;;40.25;24.15;101472.81;3534103;40;20035;-86
2021/07/19 17:52:07;;;;;;;2.28;1.27;;;;;;;40.14;24.00;101473.44;3541536;40;20047;-86
2021/07/19 17:54:35;;;;;;;3.00;1.40;;;;;;;40.03;24.06;101476.78;3534970;40;20042;-86
2021/07/19 17:57:03;;;;;;;2.40;1.25;;;;;;;39.89;24.64;101463.09;3529805;40;20047;-85
2021/07/19 18:00:02;;;;;;;2.65;1.30;;;;;;;39.90;24.34;101473.00;3574696;23;20068;-86
2021/07/19 18:02:31;;;;;;;1.70;1.00;;;;;;;39.70;24.72;101455.72;3552428;40;20648;-86
2021/07/19 18:04:58;;;;;;;3.75;1.27;;;;;;;39.61;24.64;101456.94;3544753;40;20657;-80
2021/07/19 18:07:26;;;;;;;2.25;1.00;;;;;;;39.50;24.95;101460.28;3539439;40;20066;-81
2021/07/19 18:09:54;;;;;;;3.05;1.17;;;;;;;39.34;25.08;101456.91;3540086;40;20125;-80
2021/07/19 18:12:21;;;;;;;2.08;1.17;;;;;;;39.22;25.77;101458.53;3532798;40;20062;-80
2021/07/19 18:14:49;;;;;;;4.10;1.30;;;;;;;39.12;25.76;101463.50;3525289;40;20133;-81
2021/07/19 18:17:16;;;;;;;2.78;1.13;;;;;;;38.93;25.80;101460.50;3533531;40;20058;-81
2021/07/19 18:19:43;;;;;;;1.92;1.10;;;;;;;38.79;25.71;101464.22;3543281;40;20053;-80
2021/07/19 18:22:29;;;;;;;2.10;1.10;;;;;;;38.60;26.05;101459.47;3533528;40;20062;-81
2021/07/19 18:25:10;;;;;;;3.00;0.90;;;;;;;38.36;26.12;101450.69;3525871;40;20126;-81
2021/07/19 18:30:28;;;;;;;;;;;;;;;38.19;25.72;101462.94;3539405;40;20586;-80
2021/07/19 18:32:56;;;;;;;1.48;0.88;;;;;;;37.94;26.50;101462.50;3519008;40;20020;-80
2021/07/19 18:35:28;;;;;;;1.73;1.15;;;;;;;37.74;26.89;101456.84;3538023;40;20407;-81
2021/07/19 18:37:56;;;;;;;3.03;1.15;;;;;;;37.55;27.20;101452.03;3517319;40;20346;-80
2021/07/19 18:40:25;;;;;;;2.55;1.02;;;;;;;37.40;27.05;101457.53;3539794;40;20054;-81
2021/07/19 18:42:52;;;;;;;2.63;1.20;;;;;;;37.17;27.13;101456.84;3527288;40;20054;-81
2021/07/19 18:45:19;;;;;;;2.80;1.52;;;;;;;36.88;27.87;101459.38;3539085;40;20061;-81
2021/07/19 18:47:46;;;;;;;1.90;0.95;;;;;;;36.53;28.02;101451.97;3540093;40;20055;-81
2021/07/19 18:50:13;;;;;;;1.50;0.88;;;;;;;36.10;28.77;101427.25;3516555;40;20065;-80
2021/07/19 18:52:40;;;;;;;2.92;1.20;;;;;;;35.83;29.52;101437.63;3531378;40;20054;-80
2021/07/19 18:55:10;;;;;;;3.28;1.05;;;;;;;35.56;29.67;101447.19;3537729;40;20058;-80
2021/07/19 18:57:37;;;;;;;1.90;0.88;;;;;;;35.25;30.46;101449.06;3523601;40;20062;-81
2021/07/19 19:00:09;;;;;;;2.72;1.40;;;;;;;34.97;30.10;101451.38;3529739;40;20074;-80
2021/07/19 19:11:09;;;;;;;1.73;1.10;;;;;;;33.71;32.19;101438.31;3532315;40;20061;-81
2021/07/19 19:13:36;;;;;;;3.75;1.33;;;;;;;33.42;33.17;101430.66;3514813;40;20066;-80
2021/07/19 19:16:03;;;;;;;;;;;;;;;33.19;30.76;101438.50;3537169;40;20109;-80
2021/07/19 19:18:30;;;;;;;2.97;1.13;;;;;;;32.92;33.62;101441.47;3531636;40;19948;-79
2021/07/19 19:20:57;;;;;;;4.60;1.67;;;;;;;32.67;34.65;101446.72;3544458;40;20062;-80
2021/07/19 19:23:25;;;;;;;3.47;1.48;;;;;;;32.46;34.99;101448.97;3538731;40;20049;-80
2021/07/19 19:25:52;;;;;;;2.83;1.20;;;;;;;32.26;34.80;101445.59;3523854;40;20086;-80
2021/07/19 19:28:20;;;;;;;2.92;1.20;;;;;;;32.09;34.64;101455.47;3537316;40;20144;-80
2021/07/19 19:30:48;;;;;;;3.63;1.20;;;;;;;31.81;35.45;101424.09;3534732;40;20090;-81
2021/07/19 19:33:15;;;;;;;2.15;1.02;;;;;;;31.73;36.48;101439.25;3526064;40;20054;-80
2021/07/19 19:35:43;;;;;;;1.77;0.93;;;;;;;31.54;36.38;101438.56;3535267;40;20062;-80
2021/07/19 19:38:11;;;;;;;3.50;1.33;;;;;;;31.29;36.78;101418.56;3539106;40;20097;-80
2021/07/19 19:40:39;;;;;;;3.85;1.00;;;;;;;31.22;37.02;101431.75;3542933;40;20050;-80